sensor_id;sensor_type;location;lat;lon;timestamp;pressure;altitude;pressure_sealevel;temperature;humidity
24962;BME280;12992;50.884;13.668;2023-02-03T00:00:08;98056.63;;;2.51;100.00
24962;BME280;12992;50.884;13.668;2023-02-03T00:02:37;98057.38;;;2.60;100.00
24962;BME280;12992;50.884;13.668;2023-02-03T00:05:02;98057.47;;;2.67;100.00
24962;BME280;12992;50.884;13.668;2023-02-03T00:07:27;98059.75;;;2.70;100.00
24962;BME280;12992;50.884;13.668;2023-02-03T00:09:54;98061.44;;;2.71;100.00
24962;BME280;12992;50.884;13.668;2023-02-03T00:12:20;98050.03;;;2.69;100.00
24962;BME280;12992;50.884;13.668;2023-02-03T00:14:45;98048.38;;;2.68;100.00
24962;BME280;12992;50.884;13.668;2023-02-03T00:17:11;98050.88;;;2.69;100.00
24962;BME280;12992;50.884;13.668;2023-02-03T00:19:36;98033.56;;;2.57;100.00
24962;BME280;12992;50.884;13.668;2023-02-03T00:22:01;98031.03;;;2.55;100.00
24962;BME280;12992;50.884;13.668;2023-02-03T00:24:27;98026.03;;;2.52;100.00
24962;BME280;12992;50.884;13.668;2023-02-03T00:26:52;98018.53;;;2.48;100.00
24962;BME280;12992;50.884;13.668;2023-02-03T00:29:17;98020.94;;;2.43;100.00
24962;BME280;12992;50.884;13.668;2023-02-03T00:31:45;98005.75;;;2.35;100.00
24962;BME280;12992;50.884;13.668;2023-02-03T00:34:10;98016.50;;;2.35;100.00
24962;BME280;12992;50.884;13.668;2023-02-03T00:36:38;98001.09;;;2.29;100.00
24962;BME280;12992;50.884;13.668;2023-02-03T00:39:03;98003.78;;;2.29;100.00
24962;BME280;12992;50.884;13.668;2023-02-03T00:41:29;97992.16;;;2.22;100.00
24962;BME280;12992;50.884;13.668;2023-02-03T00:43:58;97981.94;;;2.17;100.00
24962;BME280;12992;50.884;13.668;2023-02-03T00:46:23;97983.59;;;2.18;100.00
24962;BME280;12992;50.884;13.668;2023-02-03T00:48:48;97974.25;;;2.14;100.00
24962;BME280;12992;50.884;13.668;2023-02-03T00:51:14;97977.31;;;2.11;100.00
24962;BME280;12992;50.884;13.668;2023-02-03T00:53:39;97975.94;;;2.15;100.00
24962;BME280;12992;50.884;13.668;2023-02-03T00:56:05;97976.56;;;2.17;100.00
24962;BME280;12992;50.884;13.668;2023-02-03T00:58:37;97970.06;;;2.12;100.00
24962;BME280;12992;50.884;13.668;2023-02-03T01:01:03;97960.09;;;2.06;100.00
24962;BME280;12992;50.884;13.668;2023-02-03T01:03:28;97956.38;;;2.07;100.00
24962;BME280;12992;50.884;13.668;2023-02-03T01:05:53;97955.38;;;2.08;100.00
24962;BME280;12992;50.884;13.668;2023-02-03T01:08:19;97957.31;;;2.14;100.00
24962;BME280;12992;50.884;13.668;2023-02-03T01:10:44;97940.81;;;2.02;100.00
24962;BME280;12992;50.884;13.668;2023-02-03T01:13:09;97935.81;;;1.99;100.00
24962;BME280;12992;50.884;13.668;2023-02-03T01:15:35;97928.50;;;1.93;100.00
24962;BME280;12992;50.884;13.668;2023-02-03T01:18:00;97928.50;;;1.93;100.00
24962;BME280;12992;50.884;13.668;2023-02-03T01:20:25;97924.34;;;1.90;100.00
24962;BME280;12992;50.884;13.668;2023-02-03T01:22:51;97909.06;;;1.91;100.00
24962;BME280;12992;50.884;13.668;2023-02-03T01:25:16;97907.59;;;1.88;100.00
24962;BME280;12992;50.884;13.668;2023-02-03T01:27:41;97893.31;;;1.88;100.00
24962;BME280;12992;50.884;13.668;2023-02-03T01:30:07;97890.75;;;1.80;100.00
24962;BME280;12992;50.884;13.668;2023-02-03T01:32:33;97881.22;;;1.77;100.00
24962;BME280;12992;50.884;13.668;2023-02-03T01:34:58;97863.78;;;1.73;100.00
24962;BME280;12992;50.884;13.668;2023-02-03T01:37:23;97874.44;;;1.81;100.00
24962;BME280;12992;50.884;13.668;2023-02-03T01:39:48;97864.25;;;1.77;100.00
24962;BME280;12992;50.884;13.668;2023-02-03T01:42:14;97857.28;;;1.82;100.00
24962;BME280;12992;50.884;13.668;2023-02-03T01:44:48;97852.75;;;1.83;100.00
24962;BME280;12992;50.884;13.668;2023-02-03T01:47:36;97846.47;;;1.76;100.00
24962;BME280;12992;50.884;13.668;2023-02-03T01:50:13;97841.56;;;1.79;100.00
24962;BME280;12992;50.884;13.668;2023-02-03T01:52:44;97850.16;;;1.89;100.00
24962;BME280;12992;50.884;13.668;2023-02-03T01:55:13;97852.22;;;1.87;100.00
24962;BME280;12992;50.884;13.668;2023-02-03T01:57:50;97864.31;;;1.98;100.00
24962;BME280;12992;50.884;13.668;2023-02-03T02:00:16;97857.38;;;2.04;100.00
24962;BME280;12992;50.884;13.668;2023-02-03T02:02:43;97857.38;;;2.04;100.00
24962;BME280;12992;50.884;13.668;2023-02-03T02:05:19;97859.75;;;2.13;100.00
24962;BME280;12992;50.884;13.668;2023-02-03T02:07:47;97856.88;;;2.15;100.00
24962;BME280;12992;50.884;13.668;2023-02-03T02:10:13;97859.81;;;2.20;100.00
24962;BME280;12992;50.884;13.668;2023-02-03T02:12:40;97842.03;;;2.19;100.00
24962;BME280;12992;50.884;13.668;2023-02-03T02:15:06;97846.47;;;2.26;100.00
24962;BME280;12992;50.884;13.668;2023-02-03T02:17:35;97839.63;;;2.24;100.00
24962;BME280;12992;50.884;13.668;2023-02-03T02:23:05;97836.41;;;2.35;100.00
24962;BME280;12992;50.884;13.668;2023-02-03T02:28:56;97844.75;;;2.40;100.00
24962;BME280;12992;50.884;13.668;2023-02-03T02:34:34;97844.88;;;2.53;100.00
24962;BME280;12992;50.884;13.668;2023-02-03T02:37:23;97835.78;;;2.54;100.00
24962;BME280;12992;50.884;13.668;2023-02-03T02:40:06;97825.41;;;2.51;100.00
24962;BME280;12992;50.884;13.668;2023-02-03T02:42:39;97834.00;;;2.62;100.00
24962;BME280;12992;50.884;13.668;2023-02-03T02:45:15;97831.09;;;2.63;100.00
24962;BME280;12992;50.884;13.668;2023-02-03T02:47:42;97831.16;;;2.70;100.00
24962;BME280;12992;50.884;13.668;2023-02-03T02:50:27;97829.13;;;2.72;100.00
24962;BME280;12992;50.884;13.668;2023-02-03T02:52:56;97833.31;;;2.81;100.00
24962;BME280;12992;50.884;13.668;2023-02-03T02:55:25;97828.63;;;2.83;100.00
24962;BME280;12992;50.884;13.668;2023-02-03T02:58:00;97822.38;;;2.82;100.00
24962;BME280;12992;50.884;13.668;2023-02-03T03:00:31;97838.19;;;2.92;100.00
24962;BME280;12992;50.884;13.668;2023-02-03T03:03:11;97816.91;;;2.97;100.00
24962;BME280;12992;50.884;13.668;2023-02-03T03:05:36;97824.63;;;3.07;100.00
24962;BME280;12992;50.884;13.668;2023-02-03T03:08:03;97817.66;;;3.12;100.00
24962;BME280;12992;50.884;13.668;2023-02-03T03:10:30;97811.50;;;3.19;100.00
24962;BME280;12992;50.884;13.668;2023-02-03T03:13:00;97812.75;;;3.23;100.00
24962;BME280;12992;50.884;13.668;2023-02-03T03:15:30;97794.16;;;3.28;100.00
24962;BME280;12992;50.884;13.668;2023-02-03T03:18:04;97793.34;;;3.34;100.00
24962;BME280;12992;50.884;13.668;2023-02-03T03:20:32;97796.69;;;3.36;100.00
24962;BME280;12992;50.884;13.668;2023-02-03T03:23:14;97788.41;;;3.37;100.00
24962;BME280;12992;50.884;13.668;2023-02-03T03:25:44;97792.34;;;3.41;100.00
24962;BME280;12992;50.884;13.668;2023-02-03T03:28:17;97785.78;;;3.51;100.00
24962;BME280;12992;50.884;13.668;2023-02-03T03:30:48;97779.16;;;3.53;100.00
24962;BME280;12992;50.884;13.668;2023-02-03T03:33:13;97780.44;;;3.57;100.00
24962;BME280;12992;50.884;13.668;2023-02-03T03:35:48;97785.66;;;3.65;100.00
24962;BME280;12992;50.884;13.668;2023-02-03T03:38:33;97795.63;;;3.72;100.00
24962;BME280;12992;50.884;13.668;2023-02-03T03:41:07;97793.78;;;3.79;100.00
24962;BME280;12992;50.884;13.668;2023-02-03T03:43:38;97786.56;;;3.86;100.00
24962;BME280;12992;50.884;13.668;2023-02-03T03:46:13;97787.63;;;3.91;100.00
24962;BME280;12992;50.884;13.668;2023-02-03T03:51:28;97784.53;;;4.01;100.00
24962;BME280;12992;50.884;13.668;2023-02-03T03:53:57;97778.94;;;4.03;100.00
24962;BME280;12992;50.884;13.668;2023-02-03T03:56:32;97785.41;;;4.08;100.00
24962;BME280;12992;50.884;13.668;2023-02-03T03:59:01;97786.63;;;4.12;100.00
24962;BME280;12992;50.884;13.668;2023-02-03T04:01:28;97785.38;;;4.15;100.00
24962;BME280;12992;50.884;13.668;2023-02-03T04:03:58;97782.91;;;4.13;100.00
24962;BME280;12992;50.884;13.668;2023-02-03T04:06:25;97768.38;;;4.14;100.00
24962;BME280;12992;50.884;13.668;2023-02-03T04:08:50;97755.13;;;4.19;100.00
24962;BME280;12992;50.884;13.668;2023-02-03T04:11:15;97747.25;;;4.18;100.00
24962;BME280;12992;50.884;13.668;2023-02-03T04:14:01;97745.19;;;4.20;100.00
24962;BME280;12992;50.884;13.668;2023-02-03T04:16:26;97742.91;;;4.23;100.00
24962;BME280;12992;50.884;13.668;2023-02-03T04:18:52;97745.59;;;4.23;100.00
24962;BME280;12992;50.884;13.668;2023-02-03T04:21:17;97723.84;;;4.18;100.00
24962;BME280;12992;50.884;13.668;2023-02-03T04:23:42;97700.63;;;4.17;100.00
24962;BME280;12992;50.884;13.668;2023-02-03T04:26:08;97706.63;;;4.19;100.00
24962;BME280;12992;50.884;13.668;2023-02-03T04:28:33;97699.56;;;4.18;100.00
24962;BME280;12992;50.884;13.668;2023-02-03T04:31:00;97715.31;;;4.21;100.00
24962;BME280;12992;50.884;13.668;2023-02-03T04:33:25;97703.50;;;4.22;100.00
24962;BME280;12992;50.884;13.668;2023-02-03T04:35:50;97701.84;;;4.21;100.00
24962;BME280;12992;50.884;13.668;2023-02-03T04:38:16;97699.16;;;4.21;100.00
24962;BME280;12992;50.884;13.668;2023-02-03T04:40:41;97715.94;;;4.23;100.00
24962;BME280;12992;50.884;13.668;2023-02-03T04:43:10;97721.53;;;4.22;100.00
24962;BME280;12992;50.884;13.668;2023-02-03T04:45:36;97724.44;;;4.20;100.00
24962;BME280;12992;50.884;13.668;2023-02-03T04:48:01;97737.50;;;4.23;100.00
24962;BME280;12992;50.884;13.668;2023-02-03T04:50:28;97724.69;;;4.25;100.00
24962;BME280;12992;50.884;13.668;2023-02-03T04:52:54;97737.31;;;4.25;100.00
24962;BME280;12992;50.884;13.668;2023-02-03T04:55:19;97725.28;;;4.28;100.00
24962;BME280;12992;50.884;13.668;2023-02-03T04:57:44;97720.72;;;4.28;100.00
24962;BME280;12992;50.884;13.668;2023-02-03T05:00:10;97727.78;;;4.36;100.00
24962;BME280;12992;50.884;13.668;2023-02-03T05:02:36;97716.41;;;4.34;100.00
24962;BME280;12992;50.884;13.668;2023-02-03T05:05:01;97717.41;;;4.33;100.00
24962;BME280;12992;50.884;13.668;2023-02-03T05:07:26;97714.53;;;4.34;100.00
24962;BME280;12992;50.884;13.668;2023-02-03T05:09:51;97697.53;;;4.34;100.00
24962;BME280;12992;50.884;13.668;2023-02-03T05:12:17;97686.91;;;4.39;100.00
24962;BME280;12992;50.884;13.668;2023-02-03T05:14:42;97692.94;;;4.41;100.00
24962;BME280;12992;50.884;13.668;2023-02-03T05:17:08;97700.00;;;4.48;100.00
24962;BME280;12992;50.884;13.668;2023-02-03T05:19:33;97702.91;;;4.47;100.00
24962;BME280;12992;50.884;13.668;2023-02-03T05:21:58;97693.16;;;4.46;100.00
24962;BME280;12992;50.884;13.668;2023-02-03T05:24:23;97672.81;;;4.50;100.00
24962;BME280;12992;50.884;13.668;2023-02-03T05:26:49;97651.88;;;4.52;100.00
24962;BME280;12992;50.884;13.668;2023-02-03T05:29:14;97659.53;;;4.55;100.00
24962;BME280;12992;50.884;13.668;2023-02-03T05:31:39;97645.84;;;4.63;100.00
24962;BME280;12992;50.884;13.668;2023-02-03T05:34:05;97647.91;;;4.61;100.00
24962;BME280;12992;50.884;13.668;2023-02-03T05:36:30;97641.88;;;4.59;100.00
24962;BME280;12992;50.884;13.668;2023-02-03T05:38:55;97635.47;;;4.60;100.00
24962;BME280;12992;50.884;13.668;2023-02-03T05:41:21;97639.81;;;4.61;100.00
24962;BME280;12992;50.884;13.668;2023-02-03T05:44:05;97629.44;;;4.65;100.00
24962;BME280;12992;50.884;13.668;2023-02-03T05:46:30;97627.56;;;4.65;100.00
24962;BME280;12992;50.884;13.668;2023-02-03T05:48:55;97640.00;;;4.66;100.00
24962;BME280;12992;50.884;13.668;2023-02-03T05:51:21;97642.09;;;4.71;100.00
24962;BME280;12992;50.884;13.668;2023-02-03T05:53:46;97644.56;;;4.72;100.00
24962;BME280;12992;50.884;13.668;2023-02-03T05:56:11;97635.22;;;4.75;100.00
24962;BME280;12992;50.884;13.668;2023-02-03T05:58:36;97640.22;;;4.71;100.00
24962;BME280;12992;50.884;13.668;2023-02-03T06:01:02;97648.31;;;4.71;100.00
24962;BME280;12992;50.884;13.668;2023-02-03T06:03:27;97664.69;;;4.76;100.00
24962;BME280;12992;50.884;13.668;2023-02-03T06:05:52;97664.28;;;4.73;100.00
24962;BME280;12992;50.884;13.668;2023-02-03T06:08:18;97669.25;;;4.76;100.00
24962;BME280;12992;50.884;13.668;2023-02-03T06:10:43;97669.06;;;4.77;100.00
24962;BME280;12992;50.884;13.668;2023-02-03T06:13:13;97659.94;;;4.78;100.00
24962;BME280;12992;50.884;13.668;2023-02-03T06:15:39;97648.09;;;4.79;100.00
24962;BME280;12992;50.884;13.668;2023-02-03T06:18:05;97656.19;;;4.79;100.00
24962;BME280;12992;50.884;13.668;2023-02-03T06:20:31;97652.66;;;4.79;100.00
24962;BME280;12992;50.884;13.668;2023-02-03T06:22:56;97639.38;;;4.77;100.00
24962;BME280;12992;50.884;13.668;2023-02-03T06:25:21;97636.03;;;4.75;100.00
24962;BME280;12992;50.884;13.668;2023-02-03T06:27:49;97636.69;;;4.77;100.00
24962;BME280;12992;50.884;13.668;2023-02-03T06:30:14;97636.47;;;4.79;100.00
24962;BME280;12992;50.884;13.668;2023-02-03T06:32:39;97621.94;;;4.73;100.00
24962;BME280;12992;50.884;13.668;2023-02-03T06:35:05;97608.66;;;4.78;100.00
24962;BME280;12992;50.884;13.668;2023-02-03T06:37:30;97614.47;;;4.75;100.00
24962;BME280;12992;50.884;13.668;2023-02-03T06:39:56;97604.50;;;4.76;100.00
24962;BME280;12992;50.884;13.668;2023-02-03T06:42:21;97603.28;;;4.72;100.00
24962;BME280;12992;50.884;13.668;2023-02-03T06:44:47;97599.97;;;4.70;100.00
24962;BME280;12992;50.884;13.668;2023-02-03T06:47:12;97592.88;;;4.75;100.00
24962;BME280;12992;50.884;13.668;2023-02-03T06:49:37;97589.78;;;4.72;100.00
24962;BME280;12992;50.884;13.668;2023-02-03T06:52:03;97586.25;;;4.71;100.00
24962;BME280;12992;50.884;13.668;2023-02-03T06:54:31;97584.19;;;4.73;100.00
24962;BME280;12992;50.884;13.668;2023-02-03T06:56:56;97559.91;;;4.73;100.00
24962;BME280;12992;50.884;13.668;2023-02-03T06:59:22;97581.88;;;4.77;100.00
24962;BME280;12992;50.884;13.668;2023-02-03T07:01:47;97580.66;;;4.73;100.00
24962;BME280;12992;50.884;13.668;2023-02-03T07:04:12;97581.69;;;4.78;100.00
24962;BME280;12992;50.884;13.668;2023-02-03T07:06:37;97582.28;;;4.80;100.00
24962;BME280;12992;50.884;13.668;2023-02-03T07:09:04;97563.78;;;4.84;100.00
24962;BME280;12992;50.884;13.668;2023-02-03T07:11:30;97569.19;;;4.91;100.00
24962;BME280;12992;50.884;13.668;2023-02-03T07:13:55;97564.16;;;5.01;100.00
24962;BME280;12992;50.884;13.668;2023-02-03T07:16:21;97543.38;;;5.01;100.00
24962;BME280;12992;50.884;13.668;2023-02-03T07:18:46;97538.41;;;5.05;100.00
24962;BME280;12992;50.884;13.668;2023-02-03T07:21:12;97550.03;;;5.05;100.00
24962;BME280;12992;50.884;13.668;2023-02-03T07:23:38;97531.75;;;5.01;100.00
24962;BME280;12992;50.884;13.668;2023-02-03T07:26:05;97525.09;;;5.03;100.00
24962;BME280;12992;50.884;13.668;2023-02-03T07:28:32;97530.91;;;5.07;100.00
24962;BME280;12992;50.884;13.668;2023-02-03T07:30:57;97520.56;;;5.04;100.00
24962;BME280;12992;50.884;13.668;2023-02-03T07:33:23;97517.22;;;5.02;100.00
24962;BME280;12992;50.884;13.668;2023-02-03T07:35:52;97519.91;;;5.02;100.00
24962;BME280;12992;50.884;13.668;2023-02-03T07:38:18;97499.94;;;5.09;100.00
24962;BME280;12992;50.884;13.668;2023-02-03T07:40:43;97514.25;;;5.10;100.00
24962;BME280;12992;50.884;13.668;2023-02-03T07:43:08;97524.44;;;5.15;100.00
24962;BME280;12992;50.884;13.668;2023-02-03T07:45:34;97508.47;;;5.06;100.00
24962;BME280;12992;50.884;13.668;2023-02-03T07:47:59;97515.50;;;5.14;100.00
24962;BME280;12992;50.884;13.668;2023-02-03T07:50:24;97511.16;;;5.13;100.00
24962;BME280;12992;50.884;13.668;2023-02-03T07:52:50;97495.38;;;5.10;100.00
24962;BME280;12992;50.884;13.668;2023-02-03T07:55:16;97489.19;;;5.03;100.00
24962;BME280;12992;50.884;13.668;2023-02-03T07:57:41;97480.06;;;5.04;100.00
24962;BME280;12992;50.884;13.668;2023-02-03T08:00:09;97489.81;;;5.05;100.00
24962;BME280;12992;50.884;13.668;2023-02-03T08:02:37;97479.44;;;5.02;100.00
24962;BME280;12992;50.884;13.668;2023-02-03T08:05:03;97464.28;;;5.01;100.00
24962;BME280;12992;50.884;13.668;2023-02-03T08:07:28;97468.47;;;4.97;100.00
24962;BME280;12992;50.884;13.668;2023-02-03T08:09:53;97460.78;;;4.94;100.00
24962;BME280;12992;50.884;13.668;2023-02-03T08:12:18;97460.78;;;4.94;100.00
24962;BME280;12992;50.884;13.668;2023-02-03T08:14:44;97444.59;;;4.94;100.00
24962;BME280;12992;50.884;13.668;2023-02-03T08:17:09;97434.63;;;4.94;100.00
24962;BME280;12992;50.884;13.668;2023-02-03T08:19:35;97443.97;;;4.98;100.00
24962;BME280;12992;50.884;13.668;2023-02-03T08:22:00;97454.78;;;4.92;100.00
24962;BME280;12992;50.884;13.668;2023-02-03T08:24:25;97440.25;;;4.93;100.00
24962;BME280;12992;50.884;13.668;2023-02-03T08:26:51;97453.94;;;4.98;100.00
24962;BME280;12992;50.884;13.668;2023-02-03T08:29:17;97446.28;;;4.95;100.00
24962;BME280;12992;50.884;13.668;2023-02-03T08:31:43;97459.78;;;4.95;100.00
24962;BME280;12992;50.884;13.668;2023-02-03T08:34:08;97453.13;;;4.91;100.00
24962;BME280;12992;50.884;13.668;2023-02-03T08:36:33;97440.25;;;4.93;100.00
24962;BME280;12992;50.884;13.668;2023-02-03T08:39:01;97446.53;;;4.87;100.00
24962;BME280;12992;50.884;13.668;2023-02-03T08:41:26;97451.25;;;4.91;100.00
24962;BME280;12992;50.884;13.668;2023-02-03T08:43:51;97436.72;;;4.92;100.00
24962;BME280;12992;50.884;13.668;2023-02-03T08:46:18;97443.78;;;4.93;100.00
24962;BME280;12992;50.884;13.668;2023-02-03T08:48:43;97450.88;;;4.88;100.00
24962;BME280;12992;50.884;13.668;2023-02-03T08:51:14;97432.59;;;4.90;100.00
24962;BME280;12992;50.884;13.668;2023-02-03T08:53:39;97429.28;;;4.88;100.00
24962;BME280;12992;50.884;13.668;2023-02-03T08:56:06;97430.13;;;4.88;100.00
24962;BME280;12992;50.884;13.668;2023-02-03T08:58:32;97424.06;;;4.93;100.00
24962;BME280;12992;50.884;13.668;2023-02-03T09:01:12;97426.53;;;4.94;100.00
24962;BME280;12992;50.884;13.668;2023-02-03T09:03:38;97427.16;;;4.96;100.00
24962;BME280;12992;50.884;13.668;2023-02-03T09:06:05;97425.50;;;4.95;100.00
24962;BME280;12992;50.884;13.668;2023-02-03T09:08:30;97428.22;;;4.95;100.00
24962;BME280;12992;50.884;13.668;2023-02-03T09:10:56;97428.00;;;4.97;100.00
24962;BME280;12992;50.884;13.668;2023-02-03T09:13:21;97428.59;;;4.99;100.00
24962;BME280;12992;50.884;13.668;2023-02-03T09:15:47;97426.72;;;4.99;100.00
24962;BME280;12992;50.884;13.668;2023-02-03T09:18:12;97418.59;;;5.06;100.00
24962;BME280;12992;50.884;13.668;2023-02-03T09:20:38;97405.50;;;5.03;100.00
24962;BME280;12992;50.884;13.668;2023-02-03T09:23:03;97410.06;;;5.02;100.00
24962;BME280;12992;50.884;13.668;2023-02-03T09:25:28;97418.81;;;5.04;100.00
24962;BME280;12992;50.884;13.668;2023-02-03T09:27:54;97402.44;;;4.99;100.00
24962;BME280;12992;50.884;13.668;2023-02-03T09:30:19;97395.16;;;5.00;100.00
24962;BME280;12992;50.884;13.668;2023-02-03T09:32:44;97387.88;;;5.00;100.00
24962;BME280;12992;50.884;13.668;2023-02-03T09:35:13;97387.84;;;5.07;100.00
24962;BME280;12992;50.884;13.668;2023-02-03T09:37:38;97388.06;;;5.05;100.00
24962;BME280;12992;50.884;13.668;2023-02-03T09:40:04;97384.72;;;5.03;100.00
24962;BME280;12992;50.884;13.668;2023-02-03T09:42:44;97371.91;;;4.99;100.00
24962;BME280;12992;50.884;13.668;2023-02-03T09:45:26;97370.03;;;4.99;100.00
24962;BME280;12992;50.884;13.668;2023-02-03T09:47:53;97358.41;;;4.99;100.00
24962;BME280;12992;50.884;13.668;2023-02-03T09:50:28;97359.03;;;5.01;100.00
24962;BME280;12992;50.884;13.668;2023-02-03T09:52:56;97357.81;;;4.97;100.00
24962;BME280;12992;50.884;13.668;2023-02-03T09:58:01;97333.91;;;5.00;100.00
24962;BME280;12992;50.884;13.668;2023-02-03T10:00:57;97319.38;;;5.01;100.00
24962;BME280;12992;50.884;13.668;2023-02-03T10:03:47;97323.66;;;5.09;100.00
24962;BME280;12992;50.884;13.668;2023-02-03T10:06:31;97305.59;;;5.09;100.00
24962;BME280;12992;50.884;13.668;2023-02-03T10:09:13;97313.69;;;5.09;100.00
24962;BME280;12992;50.884;13.668;2023-02-03T10:19:41;97293.69;;;5.17;100.00
24962;BME280;12992;50.884;13.668;2023-02-03T10:22:11;97297.38;;;5.23;100.00
24962;BME280;12992;50.884;13.668;2023-02-03T10:24:44;97286.59;;;5.23;100.00
24962;BME280;12992;50.884;13.668;2023-02-03T10:27:20;97277.44;;;5.24;100.00
24962;BME280;12992;50.884;13.668;2023-02-03T10:29:59;97258.31;;;5.25;100.00
24962;BME280;12992;50.884;13.668;2023-02-03T10:32:27;97258.75;;;5.22;100.00
24962;BME280;12992;50.884;13.668;2023-02-03T10:34:53;97262.06;;;5.24;100.00
24962;BME280;12992;50.884;13.668;2023-02-03T10:37:30;97257.72;;;5.23;100.00
24962;BME280;12992;50.884;13.668;2023-02-03T10:39:58;97236.53;;;5.20;100.00
24962;BME280;12992;50.884;13.668;2023-02-03T10:42:27;97255.00;;;5.23;100.00
24962;BME280;12992;50.884;13.668;2023-02-03T10:45:13;97248.38;;;5.19;100.00
24962;BME280;12992;50.884;13.668;2023-02-03T10:47:42;97234.66;;;5.21;100.00
24962;BME280;12992;50.884;13.668;2023-02-03T10:50:26;97234.47;;;5.22;100.00
24962;BME280;12992;50.884;13.668;2023-02-03T10:53:25;97225.75;;;5.20;100.00
24962;BME280;12992;50.884;13.668;2023-02-03T10:56:15;97221.78;;;5.23;100.00
24962;BME280;12992;50.884;13.668;2023-02-03T10:58:56;97225.91;;;5.25;100.00
24962;BME280;12992;50.884;13.668;2023-02-03T11:01:25;97225.91;;;5.25;100.00
24962;BME280;12992;50.884;13.668;2023-02-03T11:03:56;97228.38;;;5.27;100.00
24962;BME280;12992;50.884;13.668;2023-02-03T11:06:22;97229.59;;;5.31;100.00
24962;BME280;12992;50.884;13.668;2023-02-03T11:08:49;97222.75;;;5.28;100.00
24962;BME280;12992;50.884;13.668;2023-02-03T11:11:34;97219.63;;;5.31;100.00
24962;BME280;12992;50.884;13.668;2023-02-03T11:16:34;97230.63;;;5.30;100.00
24962;BME280;12992;50.884;13.668;2023-02-03T11:19:04;97226.28;;;5.29;100.00
24962;BME280;12992;50.884;13.668;2023-02-03T11:24:27;97224.78;;;5.33;100.00
24962;BME280;12992;50.884;13.668;2023-02-03T11:26:57;97214.22;;;5.31;100.00
24962;BME280;12992;50.884;13.668;2023-02-03T11:29:26;97210.31;;;5.27;100.00
24962;BME280;12992;50.884;13.668;2023-02-03T11:31:54;97208.88;;;5.25;100.00
24962;BME280;12992;50.884;13.668;2023-02-03T11:34:26;97205.50;;;5.29;100.00
24962;BME280;12992;50.884;13.668;2023-02-03T11:36:52;97210.47;;;5.32;100.00
24962;BME280;12992;50.884;13.668;2023-02-03T11:39:23;97207.19;;;5.30;100.00
24962;BME280;12992;50.884;13.668;2023-02-03T11:41:49;97203.84;;;5.28;100.00
24962;BME280;12992;50.884;13.668;2023-02-03T11:44:21;97205.72;;;5.28;100.00
24962;BME280;12992;50.884;13.668;2023-02-03T11:46:51;97213.59;;;5.29;100.00
24962;BME280;12992;50.884;13.668;2023-02-03T11:52:54;97220.81;;;5.35;100.00
24962;BME280;12992;50.884;13.668;2023-02-03T12:03:39;97197.84;;;5.45;100.00
24962;BME280;12992;50.884;13.668;2023-02-03T12:06:16;97216.53;;;5.46;100.00
24962;BME280;12992;50.884;13.668;2023-02-03T12:09:07;97210.75;;;5.43;100.00
24962;BME280;12992;50.884;13.668;2023-02-03T12:22:42;97145.94;;;5.43;100.00
24962;BME280;12992;50.884;13.668;2023-02-03T12:25:43;97129.66;;;5.49;100.00
24962;BME280;12992;50.884;13.668;2023-02-03T12:28:44;97072.25;;;5.54;100.00
24962;BME280;12992;50.884;13.668;2023-02-03T12:31:19;97047.03;;;5.60;100.00
24962;BME280;12992;50.884;13.668;2023-02-03T12:34:05;97098.84;;;5.68;100.00
24962;BME280;12992;50.884;13.668;2023-02-03T12:36:44;97107.22;;;5.79;100.00
24962;BME280;12992;50.884;13.668;2023-02-03T12:39:20;97126.28;;;5.84;100.00
24962;BME280;12992;50.884;13.668;2023-02-03T12:41:55;97121.06;;;5.82;100.00
24962;BME280;12992;50.884;13.668;2023-02-03T12:44:28;97126.47;;;5.82;100.00
24962;BME280;12992;50.884;13.668;2023-02-03T12:47:03;97132.94;;;5.81;100.00
24962;BME280;12992;50.884;13.668;2023-02-03T12:49:39;97133.09;;;5.86;100.00
24962;BME280;12992;50.884;13.668;2023-02-03T12:52:16;97128.28;;;5.88;100.00
24962;BME280;12992;50.884;13.668;2023-02-03T12:54:48;97129.84;;;5.96;100.00
24962;BME280;12992;50.884;13.668;2023-02-03T12:57:43;97134.66;;;5.94;100.00
24962;BME280;12992;50.884;13.668;2023-02-03T13:00:15;97151.72;;;5.94;100.00
24962;BME280;12992;50.884;13.668;2023-02-03T13:03:03;97153.94;;;5.97;100.00
24962;BME280;12992;50.884;13.668;2023-02-03T13:08:36;97137.25;;;6.01;100.00
24962;BME280;12992;50.884;13.668;2023-02-03T13:11:12;97134.34;;;6.02;100.00
24962;BME280;12992;50.884;13.668;2023-02-03T13:13:43;97118.13;;;6.02;100.00
24962;BME280;12992;50.884;13.668;2023-02-03T13:16:13;97132.31;;;5.97;100.00
24962;BME280;12992;50.884;13.668;2023-02-03T13:18:45;97132.31;;;5.97;100.00
24962;BME280;12992;50.884;13.668;2023-02-03T13:21:11;97138.31;;;6.00;100.00
24962;BME280;12992;50.884;13.668;2023-02-03T13:23:41;97134.56;;;6.01;100.00
24962;BME280;12992;50.884;13.668;2023-02-03T13:26:22;97134.34;;;6.02;100.00
24962;BME280;12992;50.884;13.668;2023-02-03T13:29:07;97090.03;;;6.03;100.00
24962;BME280;12992;50.884;13.668;2023-02-03T13:40:24;97136.13;;;5.90;100.00
24962;BME280;12992;50.884;13.668;2023-02-03T13:42:59;97169.03;;;5.87;100.00
24962;BME280;12992;50.884;13.668;2023-02-03T13:45:30;97163.28;;;5.83;100.00
24962;BME280;12992;50.884;13.668;2023-02-03T13:48:19;97149.53;;;5.55;100.00
24962;BME280;12992;50.884;13.668;2023-02-03T13:50:47;97169.19;;;5.44;100.00
24962;BME280;12992;50.884;13.668;2023-02-03T13:53:16;97153.03;;;5.07;100.00
24962;BME280;12992;50.884;13.668;2023-02-03T13:55:51;97159.06;;;5.02;100.00
24962;BME280;12992;50.884;13.668;2023-02-03T13:58:21;97177.91;;;5.09;100.00
24962;BME280;12992;50.884;13.668;2023-02-03T14:03:16;97181.19;;;4.93;100.00
24962;BME280;12992;50.884;13.668;2023-02-03T14:05:44;97153.41;;;4.67;100.00